Time;durP1;ratioP1;P1;durP2;ratioP2;P2;SDS_P1;SDS_P2;PMS_P1;PMS_P2;Temp;Humidity;BMP_temperature;BMP_pressure;BME280_temperature;BME280_humidity;BME280_pressure;Samples;Min_cycle;Max_cycle;Signal;HPM_P1;HPM_P2
2023/12/25 00:00:10;;;;;;;0.50;0.20;;;11.70;99.90;;;;;;5013580;28;20557;-74
2023/12/25 00:02:37;;;;;;;0.50;0.20;;;11.70;99.90;;;;;;5013645;28;20451;-73
2023/12/25 00:05:06;;;;;;;0.57;0.17;;;11.70;99.90;;;;;;5013864;28;20451;-73
2023/12/25 00:07:34;;;;;;;0.60;0.30;;;;;;;;;;5010539;28;20534;-74
2023/12/25 00:10:02;;;;;;;0.50;0.10;;;11.70;99.90;;;;;;5009146;28;20457;-74
2023/12/25 00:12:30;;;;;;;0.50;0.20;;;11.70;99.90;;;;;;5015671;28;20440;-73
2023/12/25 00:14:59;;;;;;;0.50;0.10;;;11.80;99.90;;;;;;5014219;28;20449;-74
2023/12/25 00:17:27;;;;;;;0.50;0.10;;;11.80;99.90;;;;;;5004720;28;21024;-73
2023/12/25 00:19:57;;;;;;;16.53;1.43;;;11.70;99.90;;;;;;5010514;28;20474;-73
2023/12/25 00:22:25;;;;;;;0.50;0.10;;;11.70;99.90;;;;;;5015140;28;20455;-73
2023/12/25 00:24:52;;;;;;;0.50;0.10;;;11.70;99.90;;;;;;5008077;28;20491;-73
2023/12/25 00:27:21;;;;;;;0.50;0.10;;;11.70;99.90;;;;;;5004809;28;20522;-74
2023/12/25 00:29:49;;;;;;;0.50;0.10;;;11.70;99.90;;;;;;5012922;28;20454;-75
2023/12/25 00:32:19;;;;;;;0.83;0.30;;;11.70;99.90;;;;;;5013149;28;20568;-73
2023/12/25 00:34:47;;;;;;;0.60;0.40;;;11.70;99.90;;;;;;5009099;28;20445;-73
2023/12/25 00:37:15;;;;;;;0.50;0.10;;;11.70;99.90;;;;;;5001934;28;20978;-73
2023/12/25 00:39:43;;;;;;;0.50;0.10;;;11.60;99.90;;;;;;5013021;28;20466;-74
2023/12/25 00:42:10;;;;;;;0.50;0.10;;;11.70;99.90;;;;;;5013004;28;20545;-74
2023/12/25 00:44:38;;;;;;;0.50;0.10;;;11.60;99.90;;;;;;5004491;28;20542;-74
2023/12/25 00:47:06;;;;;;;0.50;0.20;;;11.60;99.90;;;;;;5004543;28;20493;-74
2023/12/25 00:49:35;;;;;;;0.50;0.10;;;11.70;99.90;;;;;;5013000;28;20535;-73
2023/12/25 00:52:04;;;;;;;7.10;1.23;;;11.70;99.90;;;;;;5013486;28;20452;-73
2023/12/25 00:54:32;;;;;;;0.50;0.10;;;11.60;99.90;;;;;;5012979;28;20482;-72
2023/12/25 00:57:00;;;;;;;0.50;0.10;;;11.60;99.90;;;;;;5012184;28;20477;-74
2023/12/25 00:59:28;;;;;;;0.50;0.10;;;11.70;99.90;;;;;;5012791;28;20448;-74
2023/12/25 01:01:56;;;;;;;0.50;0.10;;;11.60;99.90;;;;;;5013074;28;20448;-73
2023/12/25 01:04:24;;;;;;;0.60;0.20;;;11.70;99.90;;;;;;5012493;28;20966;-74
2023/12/25 01:06:53;;;;;;;0.50;0.20;;;11.60;99.90;;;;;;5003104;28;20562;-74
2023/12/25 01:09:22;;;;;;;0.50;0.10;;;11.50;99.90;;;;;;5010049;28;20510;-73
2023/12/25 01:11:49;;;;;;;0.50;0.10;;;11.60;99.90;;;;;;5013167;28;20444;-73
2023/12/25 01:14:17;;;;;;;0.70;0.40;;;11.60;99.90;;;;;;5020372;28;20509;-74
2023/12/25 01:16:45;;;;;;;1.83;1.33;;;11.60;99.90;;;;;;5004010;28;20471;-74
2023/12/25 01:19:14;;;;;;;0.50;0.10;;;11.60;99.90;;;;;;5011885;28;20456;-74
2023/12/25 01:21:42;;;;;;;0.70;0.40;;;11.60;99.90;;;;;;5012866;28;20446;-74
2023/12/25 01:24:11;;;;;;;0.80;0.47;;;11.60;99.90;;;;;;5013652;28;20448;-74
2023/12/25 01:26:39;;;;;;;0.50;0.20;;;11.60;99.90;;;;;;5007709;28;20893;-73
2023/12/25 01:29:07;;;;;;;0.60;0.43;;;11.60;99.90;;;;;;5012791;28;20451;-73
2023/12/25 01:31:36;;;;;;;0.93;0.20;;;;;;;;;;5012307;28;20455;-74
2023/12/25 01:34:04;;;;;;;0.80;0.60;;;11.60;99.90;;;;;;5012384;28;20451;-74
2023/12/25 01:36:32;;;;;;;0.50;0.20;;;11.50;99.90;;;;;;5011949;28;20463;-74
2023/12/25 01:39:00;;;;;;;0.60;0.23;;;11.60;99.90;;;;;;5012717;28;20970;-74
2023/12/25 01:41:29;;;;;;;0.50;0.10;;;11.50;99.90;;;;;;5013548;28;20458;-73
2023/12/25 01:43:57;;;;;;;0.50;0.10;;;11.60;99.90;;;;;;5013009;28;20535;-73
2023/12/25 01:46:25;;;;;;;0.50;0.10;;;11.60;99.90;;;;;;5009195;28;20488;-73
2023/12/25 01:48:54;;;;;;;1.10;0.53;;;11.60;99.90;;;;;;5005894;28;20464;-72
2023/12/25 01:51:23;;;;;;;0.50;0.10;;;11.60;99.90;;;;;;5012725;28;20461;-72
2023/12/25 01:53:52;;;;;;;0.60;0.30;;;11.70;99.90;;;;;;5005441;28;20483;-72
2023/12/25 01:56:20;;;;;;;0.50;0.10;;;11.70;99.90;;;;;;5012044;28;20486;-73
2023/12/25 01:58:49;;;;;;;1.10;0.60;;;11.70;99.90;;;;;;5013016;28;20444;-73
2023/12/25 02:01:17;;;;;;;1.47;0.83;;;11.70;99.90;;;;;;5004996;28;20476;-73
2023/12/25 02:03:46;;;;;;;0.50;0.20;;;11.70;99.90;;;;;;5013153;28;20531;-73
2023/12/25 02:06:15;;;;;;;1.57;0.47;;;11.70;99.90;;;;;;5009351;28;20840;-73
2023/12/25 02:08:43;;;;;;;0.50;0.10;;;11.70;99.90;;;;;;5009186;28;20543;-74
2023/12/25 02:11:11;;;;;;;3.43;0.70;;;11.70;99.90;;;;;;5011984;28;20926;-74
2023/12/25 02:13:39;;;;;;;0.50;0.10;;;11.70;99.90;;;;;;5014698;28;20527;-74
2023/12/25 02:16:09;;;;;;;0.50;0.10;;;11.60;99.90;;;;;;5005965;28;20545;-74
2023/12/25 02:18:37;;;;;;;0.50;0.20;;;11.60;99.90;;;;;;5010660;28;20475;-74
2023/12/25 02:21:05;;;;;;;0.60;0.30;;;11.70;99.90;;;;;;5014955;28;20455;-73
2023/12/25 02:23:38;;;;;;;0.50;0.20;;;11.60;99.90;;;;;;5012074;28;20447;-73
2023/12/25 02:26:08;;;;;;;0.50;0.23;;;;;;;;;;5017516;28;20546;-73
2023/12/25 02:28:36;;;;;;;0.50;0.10;;;11.70;99.90;;;;;;5012603;28;20511;-74
2023/12/25 02:31:05;;;;;;;0.70;0.20;;;11.60;99.90;;;;;;5015925;28;20487;-74
2023/12/25 02:33:33;;;;;;;0.60;0.20;;;11.60;99.90;;;;;;5007855;28;20448;-73
2023/12/25 02:36:01;;;;;;;0.50;0.10;;;11.60;99.90;;;;;;5015665;28;20544;-74
2023/12/25 02:38:29;;;;;;;1.20;0.60;;;11.70;99.90;;;;;;5015470;28;20536;-73
2023/12/25 02:40:57;;;;;;;0.50;0.20;;;11.70;99.90;;;;;;5015585;28;21009;-74
2023/12/25 02:43:27;;;;;;;0.50;0.20;;;11.70;99.90;;;;;;5007274;28;20829;-73
2023/12/25 02:45:54;;;;;;;0.60;0.30;;;11.70;99.90;;;;;;5015131;28;20503;-73
2023/12/25 02:48:22;;;;;;;0.60;0.30;;;11.60;99.90;;;;;;5015528;28;20985;-73
2023/12/25 02:50:51;;;;;;;0.50;0.10;;;11.70;99.90;;;;;;5023657;28;20451;-73
2023/12/25 02:53:19;;;;;;;0.50;0.10;;;11.70;99.90;;;;;;5008780;28;20456;-74
2023/12/25 02:55:47;;;;;;;0.50;0.10;;;11.70;99.90;;;;;;5015026;28;20475;-74
2023/12/25 02:58:15;;;;;;;0.50;0.10;;;11.70;99.90;;;;;;5015576;28;20444;-74
2023/12/25 03:00:44;;;;;;;0.50;0.10;;;11.80;99.90;;;;;;5007435;28;20539;-74
2023/12/25 03:03:12;;;;;;;0.50;0.20;;;11.70;99.90;;;;;;5014535;28;21016;-74
2023/12/25 03:05:40;;;;;;;0.50;0.10;;;11.70;99.90;;;;;;5014719;28;21009;-74
2023/12/25 03:08:08;;;;;;;0.50;0.10;;;11.70;99.90;;;;;;5014948;28;20848;-75
2023/12/25 03:10:36;;;;;;;0.50;0.10;;;11.60;99.90;;;;;;5015842;28;20451;-74
2023/12/25 03:13:04;;;;;;;0.50;0.10;;;11.60;99.90;;;;;;5014328;28;20477;-74
2023/12/25 03:15:33;;;;;;;0.50;0.20;;;11.60;99.90;;;;;;5014676;28;20908;-74
2023/12/25 03:18:02;;;;;;;0.50;0.10;;;11.60;99.90;;;;;;5001989;28;20494;-74
2023/12/25 03:20:30;;;;;;;0.50;0.17;;;11.70;99.90;;;;;;5003512;28;20465;-74
2023/12/25 03:22:58;;;;;;;0.50;0.10;;;11.70;99.90;;;;;;5014712;28;20447;-74
2023/12/25 03:25:26;;;;;;;0.50;0.20;;;11.70;99.90;;;;;;5014722;28;20470;-73
2023/12/25 03:27:54;;;;;;;3.60;0.50;;;11.70;99.90;;;;;;5014970;28;20476;-73
2023/12/25 03:30:22;;;;;;;0.50;0.10;;;11.60;99.90;;;;;;5014314;28;20487;-74
2023/12/25 03:32:50;;;;;;;0.60;0.30;;;11.60;99.90;;;;;;5008845;28;20443;-73
2023/12/25 03:35:20;;;;;;;0.60;0.20;;;;;;;;;;5010092;28;20462;-73
2023/12/25 03:37:48;;;;;;;0.50;0.10;;;11.60;99.90;;;;;;5013972;28;20443;-74
2023/12/25 03:40:16;;;;;;;0.90;0.50;;;11.60;99.90;;;;;;5012949;28;20446;-73
2023/12/25 03:42:44;;;;;;;0.50;0.10;;;11.60;99.90;;;;;;5013194;28;20487;-73
2023/12/25 03:45:12;;;;;;;0.50;0.10;;;11.60;99.90;;;;;;5014049;28;20483;-73
2023/12/25 03:47:40;;;;;;;0.50;0.10;;;11.50;99.90;;;;;;5013982;28;21043;-73
2023/12/25 03:50:08;;;;;;;0.50;0.10;;;11.50;99.90;;;;;;5013997;28;20989;-72
2023/12/25 03:52:37;;;;;;;0.70;0.30;;;11.60;99.90;;;;;;5003131;28;20544;-73
2023/12/25 03:55:06;;;;;;;0.50;0.20;;;11.60;99.90;;;;;;5014017;28;20533;-73
2023/12/25 03:57:34;;;;;;;0.60;0.20;;;11.60;99.90;;;;;;5013803;28;20505;-73
2023/12/25 04:00:03;;;;;;;0.50;0.30;;;11.60;99.90;;;;;;5014177;28;20531;-74
2023/12/25 04:02:30;;;;;;;0.50;0.20;;;11.60;99.90;;;;;;4998628;28;20454;-72
2023/12/25 04:04:58;;;;;;;0.80;0.30;;;11.60;99.90;;;;;;5014326;28;20509;-73
2023/12/25 04:07:26;;;;;;;0.50;0.10;;;11.50;99.90;;;;;;5014920;28;21035;-73
2023/12/25 04:09:56;;;;;;;0.50;0.20;;;11.60;99.90;;;;;;5007070;28;20450;-73
2023/12/25 04:12:24;;;;;;;0.50;0.10;;;11.60;99.90;;;;;;5008636;28;20447;-73
2023/12/25 04:14:52;;;;;;;0.50;0.20;;;11.50;99.90;;;;;;5014305;28;20456;-73
2023/12/25 04:17:20;;;;;;;0.50;0.10;;;11.60;99.90;;;;;;5014449;28;20467;-73
2023/12/25 04:19:48;;;;;;;4.20;1.57;;;11.50;99.90;;;;;;5014219;28;21955;-72
2023/12/25 04:22:16;;;;;;;0.50;0.10;;;11.60;99.90;;;;;;5013916;28;20550;-73
2023/12/25 04:24:44;;;;;;;0.50;0.10;;;11.60;99.90;;;;;;5009453;28;20451;-74
2023/12/25 04:27:13;;;;;;;0.50;0.10;;;11.60;99.90;;;;;;5013790;28;20466;-73
2023/12/25 04:29:41;;;;;;;0.50;0.10;;;11.60;99.90;;;;;;5014593;28;20490;-74
2023/12/25 04:32:09;;;;;;;0.50;0.10;;;11.60;99.90;;;;;;5013916;28;20436;-73
2023/12/25 04:34:37;;;;;;;0.50;0.10;;;11.50;99.90;;;;;;5011101;28;20444;-73
2023/12/25 04:37:05;;;;;;;0.73;0.73;;;11.50;99.90;;;;;;5013760;28;20472;-73
2023/12/25 04:39:33;;;;;;;0.50;0.10;;;11.50;99.90;;;;;;5014047;28;20805;-72
2023/12/25 04:42:01;;;;;;;0.50;0.10;;;11.50;99.90;;;;;;5013719;28;20453;-73
2023/12/25 04:44:31;;;;;;;0.50;0.10;;;11.60;99.90;;;;;;5013450;28;20462;-73
2023/12/25 04:46:59;;;;;;;0.50;0.10;;;11.60;99.90;;;;;;5002455;28;20472;-73
2023/12/25 04:49:27;;;;;;;0.50;0.10;;;11.60;99.90;;;;;;5009713;28;20588;-74
2023/12/25 04:51:55;;;;;;;1.20;0.40;;;11.60;99.90;;;;;;5014129;28;20449;-73
2023/12/25 04:54:22;;;;;;;0.50;0.10;;;11.60;99.90;;;;;;5010454;28;20519;-73
2023/12/25 04:56:52;;;;;;;0.70;0.20;;;11.60;99.90;;;;;;5032500;28;20477;-72
2023/12/25 04:59:21;;;;;;;0.50;0.10;;;11.60;99.90;;;;;;5033927;28;20470;-72
2023/12/25 05:01:50;;;;;;;0.60;0.30;;;11.60;99.90;;;;;;5033533;28;20454;-73
2023/12/25 05:04:18;;;;;;;0.50;0.10;;;11.60;99.90;;;;;;5028972;28;20444;-72
2023/12/25 05:06:45;;;;;;;0.50;0.10;;;11.60;99.90;;;;;;5022794;28;20549;-74
2023/12/25 05:09:13;;;;;;;0.50;0.10;;;11.60;99.90;;;;;;5015335;28;20481;-73
2023/12/25 05:11:41;;;;;;;0.60;0.30;;;11.60;99.90;;;;;;5010630;28;21037;-72
2023/12/25 05:14:09;;;;;;;0.50;0.10;;;11.60;99.90;;;;;;5020689;28;20451;-73
2023/12/25 05:16:37;;;;;;;0.50;0.10;;;11.60;99.90;;;;;;5018777;28;20468;-73
2023/12/25 05:19:06;;;;;;;0.50;0.10;;;11.60;99.90;;;;;;5016578;28;20522;-73
2023/12/25 05:21:33;;;;;;;0.70;0.20;;;11.60;99.90;;;;;;5014273;28;20957;-73
2023/12/25 05:24:01;;;;;;;0.50;0.10;;;11.60;99.90;;;;;;5012677;28;21028;-74
2023/12/25 05:26:29;;;;;;;0.50;0.20;;;11.60;99.90;;;;;;5011387;28;20474;-73
2023/12/25 05:28:57;;;;;;;0.60;0.30;;;11.60;99.90;;;;;;5012522;28;20478;-73
2023/12/25 05:31:25;;;;;;;0.50;0.10;;;11.50;99.90;;;;;;5011997;28;20448;-72
2023/12/25 05:33:53;;;;;;;0.50;0.10;;;11.50;99.90;;;;;;5004679;28;20538;-73
2023/12/25 05:36:22;;;;;;;0.50;0.10;;;11.60;99.90;;;;;;5011801;28;20554;-74
2023/12/25 05:38:52;;;;;;;0.50;0.10;;;11.50;99.90;;;;;;5008693;28;20471;-73
2023/12/25 05:41:36;;;;;;;0.50;0.10;;;11.50;99.90;;;;;;5008856;28;20851;-73
2023/12/25 05:44:06;;;;;;;0.73;0.43;;;11.50;99.90;;;;;;5011389;28;20447;-74
2023/12/25 05:46:34;;;;;;;0.50;0.10;;;11.50;99.90;;;;;;5011360;28;20471;-74
2023/12/25 05:49:02;;;;;;;0.50;0.10;;;11.50;99.90;;;;;;5012368;28;20543;-73
2023/12/25 05:51:32;;;;;;;0.50;0.10;;;11.50;99.90;;;;;;5011693;28;20447;-73
2023/12/25 05:54:00;;;;;;;0.50;0.20;;;11.50;99.90;;;;;;5012006;28;20443;-73
2023/12/25 05:56:28;;;;;;;0.50;0.10;;;11.50;99.90;;;;;;5008523;28;20518;-73
2023/12/25 05:58:56;;;;;;;0.50;0.10;;;11.40;99.90;;;;;;5011953;28;20530;-73
2023/12/25 06:01:24;;;;;;;0.50;0.10;;;11.40;99.90;;;;;;5012300;28;20451;-73
2023/12/25 06:03:51;;;;;;;0.50;0.10;;;11.40;99.90;;;;;;5012483;28;20538;-74
2023/12/25 06:06:19;;;;;;;4.57;2.20;;;11.40;99.90;;;;;;5004943;28;20479;-73
2023/12/25 06:08:48;;;;;;;0.50;0.10;;;11.30;99.90;;;;;;5015284;28;20482;-73
2023/12/25 06:11:16;;;;;;;0.50;0.10;;;11.30;99.90;;;;;;5011342;28;21014;-73
2023/12/25 06:13:44;;;;;;;0.50;0.10;;;11.20;99.90;;;;;;5012790;28;21005;-74
2023/12/25 06:16:12;;;;;;;0.50;0.10;;;11.20;99.90;;;;;;5016732;28;20466;-74
2023/12/25 06:18:40;;;;;;;0.50;0.10;;;11.10;99.90;;;;;;5016620;28;20485;-74
2023/12/25 06:21:08;;;;;;;0.50;0.10;;;11.10;99.90;;;;;;5017358;28;20452;-74
2023/12/25 06:23:36;;;;;;;0.50;0.10;;;11.10;99.90;;;;;;5016737;28;20546;-75
2023/12/25 06:26:05;;;;;;;0.50;0.10;;;11.00;99.90;;;;;;5010154;28;20531;-73
2023/12/25 06:28:33;;;;;;;0.50;0.10;;;10.90;99.90;;;;;;5017517;28;20504;-73
2023/12/25 06:31:01;;;;;;;0.50;0.10;;;10.90;99.90;;;;;;5010029;28;20517;-73
2023/12/25 06:33:29;;;;;;;0.50;0.10;;;10.90;99.90;;;;;;5010074;28;20505;-74
2023/12/25 06:35:57;;;;;;;0.50;0.20;;;10.90;99.90;;;;;;5003848;28;20471;-73
2023/12/25 06:38:25;;;;;;;0.50;0.10;;;10.90;99.90;;;;;;5010379;28;20470;-74
2023/12/25 06:40:53;;;;;;;0.50;0.20;;;10.80;99.90;;;;;;5011053;28;20501;-73
2023/12/25 06:43:22;;;;;;;0.50;0.10;;;10.80;99.90;;;;;;5016016;28;20852;-73
2023/12/25 06:45:50;;;;;;;0.50;0.10;;;10.80;99.90;;;;;;5013698;28;20462;-74
2023/12/25 06:48:18;;;;;;;0.50;0.10;;;10.80;99.90;;;;;;5011208;28;20447;-74
2023/12/25 06:50:46;;;;;;;0.50;0.10;;;10.70;99.90;;;;;;5006794;28;20483;-74
2023/12/25 06:53:14;;;;;;;0.50;0.10;;;10.70;99.90;;;;;;5000401;28;20510;-74
2023/12/25 06:55:42;;;;;;;0.50;0.10;;;10.70;1.00;;;;;;5016569;28;20557;-74
2023/12/25 06:58:09;;;;;;;0.50;0.10;;;10.70;1.00;;;;;;5011530;28;20479;-74
2023/12/25 07:00:39;;;;;;;0.50;0.10;;;10.70;1.00;;;;;;5011979;28;20448;-74
2023/12/25 07:03:07;;;;;;;0.50;0.10;;;10.70;1.00;;;;;;5010983;28;20494;-73
2023/12/25 07:05:35;;;;;;;0.50;0.10;;;10.70;1.00;;;;;;5004196;28;20874;-72
2023/12/25 07:08:05;;;;;;;0.50;0.10;;;10.70;1.00;;;;;;5005432;28;20476;-72
2023/12/25 07:10:33;;;;;;;0.60;0.20;;;10.70;1.00;;;;;;5011547;28;20482;-73
2023/12/25 07:13:01;;;;;;;0.50;0.10;;;10.60;1.00;;;;;;5006972;28;20485;-73
2023/12/25 07:15:29;;;;;;;0.50;0.10;;;10.60;1.00;;;;;;5013720;28;20472;-73
2023/12/25 07:17:58;;;;;;;0.50;0.10;;;10.60;1.00;;;;;;5014507;28;20447;-74
2023/12/25 07:20:27;;;;;;;0.50;0.10;;;10.60;1.00;;;;;;5006224;28;20453;-74
2023/12/25 07:22:55;;;;;;;0.50;0.10;;;10.60;1.00;;;;;;5013084;28;20438;-73
2023/12/25 07:25:23;;;;;;;0.50;0.10;;;10.60;1.00;;;;;;5013529;28;20545;-73
2023/12/25 07:27:51;;;;;;;0.60;0.20;;;10.60;1.00;;;;;;5014594;28;20449;-73
2023/12/25 07:30:19;;;;;;;0.50;0.10;;;10.60;1.00;;;;;;5006749;28;20505;-73
2023/12/25 07:32:47;;;;;;;0.50;0.10;;;10.60;1.00;;;;;;5006976;28;20452;-73
2023/12/25 07:35:18;;;;;;;1.13;0.30;;;;;;;;;;5004262;28;20507;-73
2023/12/25 07:37:46;;;;;;;0.50;0.10;;;10.70;1.00;;;;;;5007613;28;20447;-73
2023/12/25 07:40:14;;;;;;;0.50;0.10;;;10.60;1.00;;;;;;5003141;28;20468;-73
2023/12/25 07:42:44;;;;;;;0.50;0.10;;;10.60;1.00;;;;;;5007604;28;20948;-73
2023/12/25 07:45:13;;;;;;;0.50;0.10;;;10.70;1.00;;;;;;5003450;28;20474;-73
2023/12/25 07:47:41;;;;;;;0.50;0.10;;;10.70;1.00;;;;;;5000904;28;20453;-73
2023/12/25 07:50:10;;;;;;;0.50;0.10;;;10.60;1.00;;;;;;5008360;28;20554;-74
2023/12/25 07:52:40;;;;;;;0.50;0.20;;;12.60;1.00;;;;;;5003411;28;20543;-74
2023/12/25 07:55:08;;;;;;;0.50;0.10;;;10.60;1.00;;;;;;5005293;28;20449;-73
2023/12/25 07:57:36;;;;;;;0.50;0.10;;;10.60;1.00;;;;;;5002075;28;20809;-73
2023/12/25 08:00:05;;;;;;;0.50;0.10;;;10.50;1.00;;;;;;5009349;28;20438;-73
2023/12/25 08:02:33;;;;;;;0.50;0.10;;;10.50;1.00;;;;;;5013088;28;20437;-74
2023/12/25 08:05:00;;;;;;;0.50;0.10;;;10.50;1.00;;;;;;5011643;28;20459;-76
2023/12/25 08:07:28;;;;;;;0.50;0.10;;;10.50;1.00;;;;;;5012208;28;20476;-75
2023/12/25 08:09:58;;;;;;;1.03;1.03;;;10.50;1.00;;;;;;5016401;28;20558;-74
2023/12/25 08:12:26;;;;;;;0.60;0.37;;;10.50;1.00;;;;;;5013720;28;20470;-75
2023/12/25 08:14:53;;;;;;;0.50;0.10;;;10.60;1.00;;;;;;5011793;28;20452;-74
2023/12/25 08:17:21;;;;;;;0.50;0.30;;;10.50;1.00;;;;;;5015435;28;20561;-75
2023/12/25 08:19:50;;;;;;;0.50;0.10;;;10.50;1.00;;;;;;5009372;28;20985;-74
2023/12/25 08:22:18;;;;;;;0.50;0.10;;;10.50;1.00;;;;;;5006984;28;20446;-75
2023/12/25 08:24:45;;;;;;;0.60;0.20;;;10.50;1.00;;;;;;5012118;28;20478;-74
2023/12/25 08:27:15;;;;;;;0.50;0.10;;;10.40;1.00;;;;;;5013174;28;20470;-75
2023/12/25 08:29:43;;;;;;;0.50;0.10;;;;;;;;;;5005090;28;20454;-73
2023/12/25 08:32:13;;;;;;;0.50;0.10;;;10.40;1.00;;;;;;5007697;28;20959;-76
2023/12/25 08:34:42;;;;;;;0.50;0.10;;;10.40;1.00;;;;;;5001782;28;20448;-74
2023/12/25 08:37:09;;;;;;;0.50;0.10;;;10.50;1.00;;;;;;4999935;28;20476;-75
2023/12/25 08:39:37;;;;;;;0.50;0.20;;;10.50;1.00;;;;;;5002270;28;20950;-75
2023/12/25 08:42:05;;;;;;;0.73;0.30;;;10.50;1.00;;;;;;5002237;28;20471;-73
2023/12/25 08:44:34;;;;;;;0.50;0.10;;;10.50;1.00;;;;;;5004640;28;20438;-74
2023/12/25 08:47:03;;;;;;;0.50;0.10;;;10.50;1.00;;;;;;5012313;28;20590;-75
2023/12/25 08:49:31;;;;;;;0.50;0.20;;;10.60;1.00;;;;;;5012993;28;20530;-74
2023/12/25 08:51:59;;;;;;;0.50;0.10;;;10.50;1.00;;;;;;5007971;28;20493;-75
2023/12/25 08:54:27;;;;;;;0.50;0.20;;;10.50;1.00;;;;;;5013227;28;20821;-75
2023/12/25 08:56:55;;;;;;;0.50;0.10;;;10.50;1.00;;;;;;5004283;28;20471;-75
2023/12/25 08:59:23;;;;;;;0.50;0.10;;;10.60;1.00;;;;;;5012887;28;20446;-75
2023/12/25 09:01:55;;;;;;;0.50;0.20;;;10.60;1.00;;;;;;5011665;28;20535;-75
2023/12/25 09:04:23;;;;;;;0.50;0.10;;;10.60;1.00;;;;;;5012362;28;20457;-75
2023/12/25 09:06:50;;;;;;;0.50;0.10;;;10.60;1.00;;;;;;5006932;28;20514;-76
2023/12/25 09:09:19;;;;;;;0.50;0.10;;;10.60;1.00;;;;;;5008509;28;20961;-75
2023/12/25 09:11:47;;;;;;;2.90;1.23;;;10.70;1.00;;;;;;5009331;28;20486;-75
2023/12/25 09:14:15;;;;;;;0.50;0.10;;;10.60;1.00;;;;;;5014555;28;20445;-75
2023/12/25 09:16:43;;;;;;;0.50;0.10;;;10.60;1.00;;;;;;5002026;28;20483;-76
2023/12/25 09:19:12;;;;;;;0.50;0.10;;;10.60;1.00;;;;;;4999792;28;20447;-75
2023/12/25 09:21:41;;;;;;;0.70;0.30;;;10.60;1.00;;;;;;4994217;28;20962;-75
2023/12/25 09:24:08;;;;;;;0.50;0.10;;;10.60;1.00;;;;;;5001044;28;20474;-75
2023/12/25 09:26:36;;;;;;;0.50;0.10;;;10.60;1.00;;;;;;4992557;28;20471;-75
2023/12/25 09:29:04;;;;;;;0.50;0.10;;;10.60;1.00;;;;;;5009843;28;20454;-75
2023/12/25 09:31:33;;;;;;;0.50;0.10;;;;;;;;;;5011400;28;20518;-76
2023/12/25 09:34:01;;;;;;;0.50;0.10;;;10.70;1.00;;;;;;5009143;28;20446;-76
2023/12/25 09:36:30;;;;;;;0.50;0.10;;;10.80;1.00;;;;;;5005951;28;20481;-76
2023/12/25 09:38:58;;;;;;;0.50;0.10;;;10.80;1.00;;;;;;5010918;28;20946;-76
2023/12/25 09:41:26;;;;;;;0.50;0.10;;;10.80;1.00;;;;;;5012275;28;20517;-75
2023/12/25 09:43:56;;;;;;;0.50;0.20;;;8.50;1.00;;;;;;5013453;28;20479;-75
2023/12/25 09:46:25;;;;;;;0.50;0.10;;;10.70;1.00;;;;;;5014824;28;20502;-76
2023/12/25 09:48:54;;;;;;;0.50;0.10;;;10.70;1.00;;;;;;5004689;28;20452;-76
2023/12/25 09:51:23;;;;;;;0.50;0.10;;;;;;;;;;5011743;28;20496;-76
2023/12/25 09:53:52;;;;;;;0.50;0.10;;;10.70;1.00;;;;;;5011463;28;20451;-76
2023/12/25 09:56:24;;;;;;;0.50;0.10;;;10.70;1.00;;;;;;5011695;28;20989;-76
2023/12/25 09:58:55;;;;;;;0.50;0.10;;;10.80;1.00;;;;;;5003872;28;20837;-76
2023/12/25 10:01:24;;;;;;;0.50;0.10;;;10.70;1.00;;;;;;5010742;28;20436;-75
2023/12/25 10:03:53;;;;;;;0.50;0.10;;;10.70;1.00;;;;;;5004655;28;20443;-75
2023/12/25 10:06:21;;;;;;;0.50;0.10;;;10.70;1.00;;;;;;5011125;28;20615;-74
2023/12/25 10:08:49;;;;;;;0.50;0.10;;;10.70;1.00;;;;;;5011742;28;20446;-75
2023/12/25 10:11:19;;;;;;;0.50;0.20;;;10.80;1.00;;;;;;5010535;28;20489;-75
2023/12/25 10:13:47;;;;;;;0.50;0.20;;;10.80;1.00;;;;;;5005410;28;20476;-75
2023/12/25 10:16:14;;;;;;;0.50;0.20;;;10.70;1.00;;;;;;4999295;28;20495;-75
2023/12/25 10:18:42;;;;;;;0.50;0.10;;;10.80;1.00;;;;;;5001269;28;20448;-75
2023/12/25 10:21:11;;;;;;;0.50;0.10;;;10.80;1.00;;;;;;5013209;28;20449;-77
2023/12/25 10:23:39;;;;;;;0.50;0.10;;;10.80;1.00;;;;;;5013224;28;20442;-76
2023/12/25 10:26:07;;;;;;;0.50;0.10;;;10.90;1.00;;;;;;5012425;28;20467;-75
2023/12/25 10:28:36;;;;;;;0.50;0.10;;;10.90;1.00;;;;;;5011606;28;20446;-75
2023/12/25 10:31:05;;;;;;;0.50;0.10;;;;;;;;;;5002323;28;20880;-75
2023/12/25 10:33:34;;;;;;;0.50;0.10;;;7.20;1.00;;;;;;4992437;28;20999;-74
2023/12/25 10:36:04;;;;;;;0.50;0.20;;;10.90;99.90;;;;;;5005638;28;20996;-74
2023/12/25 10:38:35;;;;;;;0.50;0.10;;;10.90;99.90;;;;;;4997411;28;20453;-74
2023/12/25 10:41:20;;;;;;;0.77;0.37;;;10.90;99.90;;;;;;5001674;28;20535;-75
2023/12/25 10:43:53;;;;;;;0.50;0.10;;;11.00;99.90;;;;;;5007049;28;20794;-75
2023/12/25 10:46:23;;;;;;;0.50;0.10;;;11.00;99.90;;;;;;5004300;28;20585;-76
2023/12/25 10:48:52;;;;;;;0.50;0.20;;;;;;;;;;5013178;28;20971;-76
2023/12/25 10:51:29;;;;;;;0.50;0.10;;;11.00;99.90;;;;;;5015202;28;20486;-75
2023/12/25 10:53:59;;;;;;;0.50;0.10;;;;;;;;;;5018508;28;20958;-74
2023/12/25 10:56:33;;;;;;;0.50;0.10;;;11.10;99.90;;;;;;5021932;28;20476;-75
2023/12/25 10:59:08;;;;;;;0.50;0.10;;;11.10;99.90;;;;;;5009661;28;20525;-75
2023/12/25 11:01:37;;;;;;;0.50;0.10;;;11.10;99.90;;;;;;5010701;28;20561;-76
2023/12/25 11:04:05;;;;;;;0.50;0.10;;;11.10;99.90;;;;;;5012825;28;20529;-75
2023/12/25 11:06:35;;;;;;;0.50;0.10;;;11.10;99.90;;;;;;5006520;28;20573;-75
2023/12/25 11:09:04;;;;;;;0.50;0.10;;;11.10;99.90;;;;;;5002765;28;20486;-75
2023/12/25 11:11:33;;;;;;;0.50;0.20;;;11.10;99.90;;;;;;5007137;28;20945;-74
2023/12/25 11:14:06;;;;;;;0.50;0.10;;;11.10;99.90;;;;;;5012823;28;20522;-75
2023/12/25 11:16:34;;;;;;;0.50;0.10;;;11.10;99.90;;;;;;5013025;28;20467;-74
2023/12/25 11:19:03;;;;;;;0.50;0.10;;;;;;;;;;5010429;28;20467;-76
2023/12/25 11:21:33;;;;;;;0.50;0.10;;;11.10;99.90;;;;;;5011573;28;20497;-74
2023/12/25 11:24:02;;;;;;;0.50;0.10;;;11.20;99.90;;;;;;5024528;28;21018;-74
2023/12/25 11:26:31;;;;;;;0.50;0.10;;;11.20;99.90;;;;;;5013764;28;20468;-75
2023/12/25 11:29:06;;;;;;;0.50;0.10;;;11.20;99.90;;;;;;5015510;28;20458;-77
2023/12/25 11:31:45;;;;;;;0.50;0.10;;;11.30;99.90;;;;;;5007059;28;21121;-75
2023/12/25 11:34:21;;;;;;;0.50;0.10;;;11.30;99.90;;;;;;4999734;28;20537;-75
2023/12/25 11:36:51;;;;;;;0.50;0.10;;;11.30;99.90;;;;;;5002137;28;20463;-75
2023/12/25 11:39:20;;;;;;;0.50;0.10;;;11.30;99.90;;;;;;5001239;28;20467;-74
2023/12/25 11:41:49;;;;;;;0.50;0.10;;;12.50;99.90;;;;;;5014916;28;20512;-74
2023/12/25 11:44:19;;;;;;;0.50;0.10;;;11.30;99.90;;;;;;5009572;28;20476;-71
2023/12/25 11:46:49;;;;;;;0.50;0.10;;;11.30;99.90;;;;;;5034883;28;20485;-73
2023/12/25 11:49:20;;;;;;;0.50;0.10;;;11.30;99.90;;;;;;5033757;28;20445;-76
2023/12/25 11:51:48;;;;;;;0.50;0.10;;;11.30;99.90;;;;;;5029032;28;21263;-74
2023/12/25 11:54:18;;;;;;;0.50;0.10;;;11.30;99.90;;;;;;5021709;28;20516;-74
2023/12/25 11:56:47;;;;;;;0.50;0.10;;;11.30;99.90;;;;;;5021112;28;20473;-74
2023/12/25 11:59:15;;;;;;;0.60;0.30;;;11.30;99.90;;;;;;5029109;28;20850;-74
2023/12/25 12:01:46;;;;;;;0.50;0.10;;;11.20;99.90;;;;;;4998316;28;20503;-73
2023/12/25 12:04:18;;;;;;;0.60;0.20;;;11.20;99.90;;;;;;4993700;28;20528;-73
2023/12/25 12:06:45;;;;;;;0.50;0.20;;;11.30;99.90;;;;;;4992823;28;20481;-73
2023/12/25 12:09:14;;;;;;;0.50;0.10;;;11.30;99.90;;;;;;4992999;28;20474;-74
2023/12/25 12:11:42;;;;;;;0.50;0.10;;;11.30;99.90;;;;;;4998159;28;20475;-74
2023/12/25 12:14:09;;;;;;;0.50;0.10;;;11.30;99.90;;;;;;5009982;28;20455;-74
2023/12/25 12:16:42;;;;;;;0.50;0.20;;;11.20;99.90;;;;;;4992599;28;21073;-75
2023/12/25 12:19:13;;;;;;;0.50;0.10;;;11.20;99.90;;;;;;4994796;28;20532;-73
2023/12/25 12:21:43;;;;;;;0.50;0.10;;;;;;;;;;5004699;28;20545;-74
2023/12/25 12:24:24;;;;;;;0.50;0.10;;;11.20;99.90;;;;;;5005473;28;20519;-74
2023/12/25 12:26:53;;;;;;;0.50;0.10;;;11.30;99.90;;;;;;4997957;28;20476;-77
2023/12/25 12:29:21;;;;;;;0.50;0.20;;;11.30;99.90;;;;;;5001397;28;20439;-76
2023/12/25 12:31:49;;;;;;;0.50;0.10;;;11.30;99.90;;;;;;5010844;28;21036;-75
2023/12/25 12:34:18;;;;;;;0.77;0.60;;;11.30;99.90;;;;;;4992713;28;20476;-74
2023/12/25 12:36:58;;;;;;;0.50;0.10;;;11.40;99.90;;;;;;4994927;28;20599;-75
2023/12/25 12:39:26;;;;;;;0.50;0.10;;;11.40;99.90;;;;;;4997245;28;21013;-73
2023/12/25 12:41:55;;;;;;;0.50;0.10;;;11.30;99.90;;;;;;4995579;28;20503;-73
2023/12/25 12:44:23;;;;;;;0.50;0.10;;;11.30;99.90;;;;;;4992676;28;20997;-73
2023/12/25 12:46:52;;;;;;;0.50;0.10;;;11.30;99.90;;;;;;4993054;28;20483;-73
2023/12/25 12:49:21;;;;;;;0.50;0.10;;;;;;;;;;4996065;28;20447;-73
2023/12/25 12:51:49;;;;;;;0.50;0.10;;;11.40;99.90;;;;;;5003821;28;20852;-73
2023/12/25 12:54:18;;;;;;;0.50;0.10;;;11.40;99.90;;;;;;4992745;28;20495;-73
2023/12/25 12:56:46;;;;;;;0.50;0.10;;;11.40;99.90;;;;;;4995209;28;20475;-74
2023/12/25 12:59:15;;;;;;;0.50;0.10;;;11.40;99.90;;;;;;4992727;28;20452;-74